Terminal Aerodrome Forecast
Issued by NWS Mt. Holly, NJ

Home | Current Version | Previous Version | Text Only | Print | Product List | Glossary On
Versions: 1 2 3 4 5 6 7 8 9 10 11 12 13 14 15 16 17 18
000
FTAK31 PANC 240042 AAA
TAFABE
TAF AMD
PABE 240042Z 2401/2424 21011KT P6SM SCT023 BKN050
      TEMPO 2401/2403 BKN023
     FM241600 21005KT P6SM BKN015 OVC040
     FM242100 21008KT P6SM SCT015 BKN040=

USA.gov is the U.S. government's official web portal to all federal, state and local government web resources and services.